Time;durP1;ratioP1;P1;durP2;ratioP2;P2;SDS_P1;SDS_P2;PMS_P1;PMS_P2;Temp;Humidity;BMP_temperature;BMP_pressure;BME280_temperature;BME280_humidity;BME280_pressure;Samples;Min_cycle;Max_cycle;Signal;HPM_P1;HPM_P2
2021/07/12 00:02:08;;;;;;;10.05;7.90;;;18.30;95.20;;;;;;4968454;28;20046;-87
2021/07/12 00:04:34;;;;;;;8.70;7.85;;;18.30;95.00;;;;;;4972123;28;20707;-88
2021/07/12 00:06:59;;;;;;;10.55;8.90;;;18.30;95.00;;;;;;4972114;28;20410;-87
2021/07/12 00:09:25;;;;;;;13.48;8.75;;;18.30;95.50;;;;;;4987707;28;20066;-87
2021/07/12 00:11:51;;;;;;;11.18;8.63;;;18.30;95.20;;;;;;4955929;28;20030;-87
2021/07/12 00:14:16;;;;;;;10.85;8.63;;;18.30;95.30;;;;;;4955558;28;20038;-87
2021/07/12 00:16:42;;;;;;;12.43;8.15;;;18.30;95.50;;;;;;4988318;28;20045;-87
2021/07/12 00:19:07;;;;;;;11.13;8.02;;;18.30;95.60;;;;;;4988362;28;20038;-86
2021/07/12 00:21:33;;;;;;;9.45;8.40;;;18.20;95.20;;;;;;4987953;28;20041;-87
2021/07/12 00:23:58;;;;;;;10.50;9.15;;;18.30;95.20;;;;;;4987754;28;20026;-87
2021/07/12 00:26:24;;;;;;;9.73;7.53;;;18.30;95.70;;;;;;4987771;28;20837;-87
2021/07/12 00:28:50;;;;;;;11.48;8.10;;;18.30;95.20;;;;;;4987510;28;20026;-88
2021/07/12 00:31:15;;;;;;;9.27;8.30;;;18.30;95.10;;;;;;4984313;28;20398;-87
2021/07/12 00:33:41;;;;;;;12.35;8.00;;;18.20;95.10;;;;;;4971433;28;20033;-87
2021/07/12 00:36:07;;;;;;;10.68;8.75;;;18.20;94.90;;;;;;4975695;28;20551;-87
2021/07/12 00:38:32;;;;;;;15.05;9.13;;;18.20;95.00;;;;;;4971051;28;20034;-86
2021/07/12 00:40:58;;;;;;;11.73;8.50;;;18.20;95.40;;;;;;4987465;28;20034;-87
2021/07/12 00:43:23;;;;;;;13.10;8.00;;;18.20;95.30;;;;;;4971301;28;20033;-87
2021/07/12 00:45:49;;;;;;;8.75;7.85;;;18.20;95.10;;;;;;4971156;28;20096;-87
2021/07/12 00:48:15;;;;;;;12.98;8.10;;;18.20;94.90;;;;;;4972064;28;20656;-87
2021/07/12 00:50:47;;;;;;;9.90;7.97;;;18.20;94.90;;;;;;4971361;28;20084;-87
2021/07/12 00:53:16;;;;;;;10.68;8.65;;;18.10;95.30;;;;;;4987846;28;20153;-87
2021/07/12 00:55:46;;;;;;;12.07;7.65;;;18.20;95.50;;;;;;4984275;28;20073;-87
2021/07/12 00:58:16;;;;;;;21.00;7.60;;;18.20;95.20;;;;;;4970241;28;20065;-85
2021/07/12 01:00:44;;;;;;;16.02;7.80;;;18.10;95.00;;;;;;4965750;28;20030;-88
2021/07/12 01:03:10;;;;;;;10.05;7.63;;;18.10;95.00;;;;;;4967268;28;20070;-87
2021/07/12 01:05:36;;;;;;;9.38;7.43;;;18.10;95.00;;;;;;4967824;28;20034;-87
2021/07/12 01:08:02;;;;;;;8.73;7.82;;;18.10;95.30;;;;;;4967541;28;20030;-87
2021/07/12 01:10:27;;;;;;;9.35;7.82;;;18.00;95.30;;;;;;4970802;28;20022;-87
2021/07/12 01:13:22;;;;;;;9.95;7.65;;;18.00;95.20;;;;;;4986870;28;20397;-87
2021/07/12 01:16:14;;;;;;;11.32;8.70;;;18.00;95.50;;;;;;4946691;28;20035;-87
2021/07/12 01:18:41;;;;;;;9.30;7.60;;;18.00;95.40;;;;;;5002602;28;20794;-87
2021/07/12 01:21:45;;;;;;;9.18;8.02;;;18.00;95.20;;;;;;5003009;28;20095;-87
2021/07/12 01:24:48;;;;;;;10.98;8.48;;;18.00;95.20;;;;;;4986737;28;20053;-87
2021/07/12 01:27:30;;;;;;;10.35;8.63;;;18.00;95.40;;;;;;4996593;28;20034;-87
2021/07/12 01:30:33;;;;;;;10.25;7.68;;;18.00;95.40;;;;;;4957666;28;20121;-87
2021/07/12 01:33:17;;;;;;;10.85;9.35;;;18.00;95.10;;;;;;4986628;28;20034;-87
2021/07/12 01:36:05;;;;;;;13.57;8.32;;;18.00;95.80;;;;;;4987106;28;20026;-87
2021/07/12 01:38:44;;;;;;;17.83;11.45;;;17.90;96.00;;;;;;4986098;28;20030;-87
2021/07/12 01:41:22;;;;;;;9.50;8.60;;;17.90;96.60;;;;;;4983036;28;20031;-87
2021/07/12 01:44:00;;;;;;;8.82;8.02;;;17.90;96.10;;;;;;4970602;28;20030;-87
2021/07/12 01:46:28;;;;;;;13.95;8.57;;;17.90;95.60;;;;;;4975587;28;20047;-87
2021/07/12 01:49:04;;;;;;;10.50;8.05;;;17.80;95.50;;;;;;4974177;28;20054;-87
2021/07/12 01:51:55;;;;;;;10.50;9.13;;;17.70;95.40;;;;;;4995561;28;20030;-87
2021/07/12 01:54:34;;;;;;;10.43;7.93;;;17.70;95.70;;;;;;4989046;28;20030;-87
2021/07/12 01:57:06;;;;;;;14.02;8.50;;;17.70;95.30;;;;;;4967126;28;20034;-87
2021/07/12 01:59:44;;;;;;;11.05;8.63;;;17.70;95.70;;;;;;4987212;28;20030;-88
2021/07/12 02:02:09;;;;;;;9.02;7.93;;;17.70;95.60;;;;;;4970651;28;20030;-87
2021/07/12 02:04:35;;;;;;;10.32;8.25;;;17.70;95.60;;;;;;4986246;28;20038;-87
2021/07/12 02:07:01;;;;;;;10.57;7.90;;;17.70;95.30;;;;;;4983227;28;20042;-87
2021/07/12 02:09:26;;;;;;;10.93;8.15;;;17.60;95.20;;;;;;4969820;28;20023;-87
2021/07/12 02:11:52;;;;;;;14.43;9.15;;;17.60;95.30;;;;;;4966791;28;20030;-87
2021/07/12 02:14:21;;;;;;;13.18;10.23;;;17.60;95.60;;;;;;4960299;28;20031;-87
2021/07/12 02:16:48;;;;;;;13.45;8.73;;;17.60;96.30;;;;;;4966955;28;20027;-87
2021/07/12 02:19:14;;;;;;;10.10;8.52;;;17.60;96.50;;;;;;4976649;28;20486;-87
2021/07/12 02:21:40;;;;;;;11.20;8.85;;;17.60;95.80;;;;;;4951842;28;20037;-88
2021/07/12 02:24:05;;;;;;;11.90;8.68;;;17.60;95.50;;;;;;4969896;28;20030;-86
2021/07/12 02:26:31;;;;;;;11.40;8.75;;;17.50;95.40;;;;;;4951787;28;20042;-86
2021/07/12 02:28:57;;;;;;;12.48;8.52;;;17.50;95.20;;;;;;4969551;28;20030;-88
2021/07/12 02:31:24;;;;;;;14.77;8.70;;;17.50;95.50;;;;;;4959078;28;21367;-86
2021/07/12 02:33:49;;;;;;;11.55;9.35;;;17.50;95.50;;;;;;4966486;28;20080;-87
2021/07/12 02:36:15;;;;;;;13.80;8.73;;;17.50;95.90;;;;;;4966888;28;20034;-88
2021/07/12 02:38:40;;;;;;;13.63;9.45;;;17.50;95.60;;;;;;4966525;28;20538;-87
2021/07/12 02:41:06;;;;;;;12.05;8.43;;;17.50;95.90;;;;;;4969930;28;20062;-88
2021/07/12 02:43:32;;;;;;;15.48;9.43;;;17.40;95.70;;;;;;4970272;28;20053;-87
2021/07/12 02:45:58;;;;;;;12.48;9.68;;;17.40;96.20;;;;;;4970336;28;20814;-89
2021/07/12 02:48:23;;;;;;;12.90;10.02;;;17.40;95.90;;;;;;4969680;28;20109;-88
2021/07/12 02:50:52;;;;;;;14.95;10.52;;;17.40;95.70;;;;;;4969008;28;20026;-89
2021/07/12 02:53:19;;;;;;;17.42;13.63;;;17.40;95.80;;;;;;4983543;28;20459;-91
2021/07/12 02:55:45;;;;;;;16.70;12.05;;;17.40;96.30;;;;;;4956565;28;20744;-90
2021/07/12 02:58:10;;;;;;;18.20;12.80;;;17.30;95.80;;;;;;4980529;28;20047;-87
2021/07/12 03:00:36;;;;;;;17.77;14.50;;;17.30;95.70;;;;;;4986049;28;20078;-89
2021/07/12 03:03:02;;;;;;;17.23;14.13;;;17.30;95.80;;;;;;4956343;28;20096;-88
2021/07/12 03:05:28;;;;;;;17.27;14.30;;;17.30;95.80;;;;;;4989538;28;20041;-88
2021/07/12 03:08:08;;;;;;;17.75;14.35;;;17.30;95.60;;;;;;4973014;28;20045;-87
2021/07/12 03:10:39;;;;;;;22.63;14.05;;;17.30;95.60;;;;;;4989042;28;20026;-88
2021/07/12 03:13:05;;;;;;;18.67;14.70;;;17.30;95.60;;;;;;4989280;28;20397;-89
2021/07/12 03:15:40;;;;;;;18.88;15.02;;;17.30;95.50;;;;;;4989273;28;20034;-88
2021/07/12 03:18:09;;;;;;;17.38;14.40;;;17.30;95.80;;;;;;4969190;28;20039;-88
2021/07/12 03:20:35;;;;;;;23.70;16.83;;;17.20;95.50;;;;;;4969077;28;20114;-87
2021/07/12 03:23:01;;;;;;;20.27;16.10;;;17.20;95.60;;;;;;4972502;28;20121;-87
2021/07/12 03:25:30;;;;;;;18.95;15.90;;;17.20;95.70;;;;;;4969849;28;20022;-90
2021/07/12 03:27:57;;;;;;;20.80;15.60;;;17.20;95.60;;;;;;4971437;28;20631;-89
2021/07/12 03:30:24;;;;;;;19.77;16.77;;;17.20;95.40;;;;;;4956238;28;20035;-90
2021/07/12 03:32:49;;;;;;;21.38;17.75;;;17.20;95.80;;;;;;4972547;28;20050;-89
2021/07/12 03:35:15;;;;;;;17.98;15.02;;;17.30;96.00;;;;;;4988206;28;20077;-88
2021/07/12 03:37:41;;;;;;;18.60;16.17;;;17.20;95.50;;;;;;4971030;28;20041;-88
2021/07/12 03:40:11;;;;;;;21.17;15.88;;;17.20;95.50;;;;;;4988599;28;20023;-88
2021/07/12 03:42:37;;;;;;;18.80;15.18;;;17.20;95.80;;;;;;4971763;28;20069;-88
2021/07/12 03:45:05;;;;;;;30.00;15.75;;;17.20;95.60;;;;;;4956264;28;20030;-89
2021/07/12 03:47:31;;;;;;;19.55;15.85;;;17.20;95.50;;;;;;4955741;28;20030;-89
2021/07/12 03:50:11;;;;;;;18.75;15.85;;;17.20;95.60;;;;;;4972116;28;20569;-88
2021/07/12 03:52:44;;;;;;;23.67;17.40;;;17.20;95.50;;;;;;4988982;28;20113;-88
2021/07/12 03:55:10;;;;;;;22.10;18.20;;;17.10;95.70;;;;;;5000629;28;20042;-88
2021/07/12 03:57:36;;;;;;;20.52;17.33;;;17.10;95.60;;;;;;4977370;28;20027;-89
2021/07/12 04:00:04;;;;;;;26.80;22.40;;;17.20;95.70;;;;;;4972783;28;20131;-90
2021/07/12 04:02:29;;;;;;;26.73;22.83;;;17.20;96.20;;;;;;4972435;28;20061;-89
2021/07/12 04:04:55;;;;;;;27.25;23.10;;;17.20;96.10;;;;;;4956989;28;20035;-88
2021/07/12 04:07:20;;;;;;;30.05;24.17;;;17.30;96.20;;;;;;4952439;28;20031;-89
2021/07/12 04:09:46;;;;;;;30.55;24.27;;;17.30;96.10;;;;;;4966415;28;20070;-88
2021/07/12 04:12:12;;;;;;;31.55;24.55;;;17.30;96.00;;;;;;4956007;28;20056;-89
2021/07/12 04:14:37;;;;;;;28.67;23.92;;;17.40;95.90;;;;;;4971627;28;20113;-88
2021/07/12 04:17:03;;;;;;;30.63;24.83;;;17.40;96.00;;;;;;4988336;28;20076;-89
2021/07/12 04:19:28;;;;;;;28.02;23.85;;;17.40;95.80;;;;;;4987911;28;20041;-89
2021/07/12 04:21:54;;;;;;;27.45;23.75;;;17.50;95.70;;;;;;4987863;28;20082;-89
2021/07/12 04:24:19;;;;;;;27.33;24.23;;;17.40;96.00;;;;;;4961491;28;20584;-86
2021/07/12 04:26:45;;;;;;;32.45;23.63;;;17.50;95.80;;;;;;4968269;28;20092;-89
2021/07/12 04:29:10;;;;;;;27.55;24.08;;;17.40;95.80;;;;;;4971473;28;20022;-89
2021/07/12 04:31:36;;;;;;;27.73;22.52;;;17.50;95.70;;;;;;4971442;28;20027;-88
2021/07/12 04:34:01;;;;;;;28.23;23.88;;;17.50;95.70;;;;;;4971789;28;20062;-89
2021/07/12 04:36:27;;;;;;;29.50;23.63;;;17.50;95.90;;;;;;4972018;28;20026;-88
2021/07/12 04:38:52;;;;;;;32.78;23.40;;;17.50;95.70;;;;;;4971294;28;20031;-89
2021/07/12 04:41:18;;;;;;;24.83;21.38;;;17.50;95.50;;;;;;4987751;28;20027;-87
2021/07/12 04:43:44;;;;;;;32.08;22.75;;;17.50;95.60;;;;;;4995024;28;20514;-89
2021/07/12 04:46:09;;;;;;;25.80;22.65;;;17.50;95.70;;;;;;4971761;28;20030;-89
2021/07/12 04:48:35;;;;;;;26.40;22.70;;;17.50;96.00;;;;;;4971269;28;20104;-87
2021/07/12 04:51:00;;;;;;;30.85;23.92;;;17.50;95.70;;;;;;4955711;28;20165;-87
2021/07/12 04:53:26;;;;;;;28.83;24.08;;;17.60;96.00;;;;;;4971849;28;20498;-89
2021/07/12 04:55:51;;;;;;;29.63;23.60;;;17.60;95.80;;;;;;4971412;28;20030;-88
2021/07/12 04:58:17;;;;;;;27.35;22.75;;;17.50;95.70;;;;;;4971269;28;20030;-87
2021/07/12 05:00:42;;;;;;;25.35;21.75;;;17.60;95.80;;;;;;4971157;28;20034;-89
2021/07/12 05:03:08;;;;;;;27.63;22.48;;;17.60;95.70;;;;;;4987057;28;20077;-87
2021/07/12 05:05:33;;;;;;;27.98;22.88;;;17.60;95.80;;;;;;4987734;28;20041;-89
2021/07/12 05:07:59;;;;;;;28.83;22.65;;;17.60;96.00;;;;;;4971082;28;20066;-88
2021/07/12 05:10:25;;;;;;;28.27;21.95;;;17.70;95.90;;;;;;4987376;28;20049;-89
2021/07/12 05:12:50;;;;;;;26.58;20.92;;;17.70;95.80;;;;;;4987477;28;20104;-88
2021/07/12 05:15:16;;;;;;;26.95;22.60;;;17.70;95.70;;;;;;4987372;28;20054;-90
2021/07/12 05:17:41;;;;;;;26.05;22.20;;;17.70;95.70;;;;;;4986338;28;20441;-89
2021/07/12 05:20:07;;;;;;;33.03;23.80;;;17.80;95.80;;;;;;4986990;28;20116;-90
2021/07/12 05:22:33;;;;;;;25.92;22.77;;;17.80;95.80;;;;;;4987014;28;20099;-88
2021/07/12 05:24:59;;;;;;;24.52;21.88;;;17.80;95.90;;;;;;4987167;28;20133;-89
2021/07/12 05:27:24;;;;;;;24.55;21.67;;;17.80;95.80;;;;;;4987068;28;20022;-89
2021/07/12 05:29:50;;;;;;;26.67;23.33;;;17.90;95.80;;;;;;4994975;23;21114;-88
2021/07/12 05:32:15;;;;;;;27.70;23.33;;;17.90;95.80;;;;;;4931917;29;20039;-88
2021/07/12 05:34:41;;;;;;;25.55;22.20;;;17.90;95.70;;;;;;4948030;29;20061;-88
2021/07/12 05:37:06;;;;;;;31.48;22.92;;;18.00;95.80;;;;;;4947438;29;20111;-88
2021/07/12 05:39:32;;;;;;;26.95;22.40;;;18.00;95.60;;;;;;4948031;29;20041;-88
2021/07/12 05:41:57;;;;;;;30.25;22.90;;;18.00;95.60;;;;;;4931881;29;20038;-88
2021/07/12 05:44:23;;;;;;;29.90;22.27;;;18.10;95.60;;;;;;4948083;29;20037;-88
2021/07/12 05:46:48;;;;;;;29.98;22.15;;;18.10;95.60;;;;;;4916339;29;20023;-88
2021/07/12 05:49:14;;;;;;;27.05;22.23;;;18.10;95.40;;;;;;4916117;29;20398;-88
2021/07/12 05:51:40;;;;;;;29.58;21.95;;;18.20;95.40;;;;;;4943867;29;20031;-89
2021/07/12 05:54:05;;;;;;;30.52;21.02;;;18.20;95.30;;;;;;4947702;29;20439;-88
2021/07/12 05:56:31;;;;;;;29.23;21.70;;;18.30;95.40;;;;;;4947982;29;20257;-88
2021/07/12 05:58:56;;;;;;;24.67;21.00;;;18.30;95.30;;;;;;4947746;28;20031;-88
2021/07/12 06:01:22;;;;;;;30.85;20.80;;;18.30;95.20;;;;;;4947877;28;20136;-87
2021/07/12 06:03:47;;;;;;;26.23;20.88;;;18.40;95.10;;;;;;4947922;29;20770;-88
2021/07/12 06:06:14;;;;;;;23.67;19.48;;;18.40;95.00;;;;;;4931668;29;20565;-88
2021/07/12 06:08:39;;;;;;;24.23;20.20;;;18.40;95.10;;;;;;4947503;29;20082;-88
2021/07/12 06:11:05;;;;;;;25.08;19.02;;;18.40;94.90;;;;;;4947503;28;20454;-88
2021/07/12 06:13:30;;;;;;;27.02;21.15;;;18.50;94.80;;;;;;4967122;28;20445;-87
2021/07/12 06:15:56;;;;;;;30.42;19.90;;;18.60;94.70;;;;;;4951084;28;20070;-87
2021/07/12 06:18:21;;;;;;;23.80;19.00;;;18.50;94.70;;;;;;4931448;29;20495;-88
2021/07/12 06:20:47;;;;;;;24.98;19.65;;;18.50;94.60;;;;;;4931576;29;20075;-88
2021/07/12 06:23:12;;;;;;;22.02;18.20;;;18.50;94.40;;;;;;4915668;29;20109;-88
2021/07/12 06:25:38;;;;;;;25.65;18.73;;;18.50;94.40;;;;;;4931501;29;20139;-88
2021/07/12 06:28:04;;;;;;;22.00;18.58;;;18.60;94.30;;;;;;4931433;29;20119;-88
2021/07/12 06:30:30;;;;;;;28.50;19.20;;;18.60;94.50;;;;;;4935057;29;20186;-88
2021/07/12 06:32:55;;;;;;;23.80;20.00;;;18.60;94.50;;;;;;4935258;29;20645;-88
2021/07/12 06:35:21;;;;;;;30.95;21.73;;;18.60;94.40;;;;;;4935310;29;20119;-88
2021/07/12 06:37:46;;;;;;;26.25;21.10;;;18.60;94.40;;;;;;4950910;29;20038;-88
2021/07/12 06:40:12;;;;;;;24.63;20.15;;;18.70;94.20;;;;;;4940856;29;20074;-87
2021/07/12 06:42:38;;;;;;;25.83;21.17;;;18.70;94.10;;;;;;4951042;29;20039;-88
2021/07/12 06:45:04;;;;;;;23.38;19.60;;;18.60;93.90;;;;;;4970316;28;20035;-88
2021/07/12 06:47:30;;;;;;;29.35;21.23;;;18.70;94.00;;;;;;4954175;28;20077;-88
2021/07/12 06:49:55;;;;;;;27.65;21.88;;;18.70;94.10;;;;;;4934580;29;20493;-88
2021/07/12 06:52:21;;;;;;;22.40;19.25;;;18.70;93.90;;;;;;4919362;29;20062;-88
2021/07/12 06:54:46;;;;;;;26.80;20.90;;;18.70;94.00;;;;;;4935150;29;20130;-88
2021/07/12 06:57:13;;;;;;;26.75;20.27;;;18.70;94.00;;;;;;4921855;28;20077;-88
2021/07/12 06:59:38;;;;;;;23.85;20.17;;;18.80;94.20;;;;;;4934743;29;20038;-88
2021/07/12 07:02:04;;;;;;;26.60;20.35;;;18.80;94.00;;;;;;4934807;29;20031;-88
2021/07/12 07:04:30;;;;;;;22.65;20.20;;;18.80;94.20;;;;;;4934691;29;20027;-88
2021/07/12 07:06:55;;;;;;;27.95;20.30;;;18.90;94.30;;;;;;4934696;29;20035;-88
2021/07/12 07:09:21;;;;;;;22.30;18.20;;;18.90;94.20;;;;;;4950396;29;20032;-88
2021/07/12 07:11:46;;;;;;;21.98;18.73;;;18.90;94.10;;;;;;4934615;29;20030;-88
2021/07/12 07:14:12;;;;;;;21.25;16.27;;;19.00;93.80;;;;;;4934560;29;20166;-88
2021/07/12 07:16:37;;;;;;;19.77;14.40;;;19.00;93.50;;;;;;4950658;29;20039;-88
2021/07/12 07:19:03;;;;;;;19.88;14.25;;;19.00;93.50;;;;;;4921943;29;20027;-89
2021/07/12 07:21:28;;;;;;;17.98;13.48;;;19.10;93.60;;;;;;4934664;29;20078;-88
2021/07/12 07:23:54;;;;;;;15.60;13.60;;;19.10;93.40;;;;;;4934500;29;20027;-89
2021/07/12 07:26:19;;;;;;;16.27;13.95;;;19.20;93.20;;;;;;4918236;29;20118;-88
2021/07/12 07:28:45;;;;;;;17.38;13.80;;;19.20;93.50;;;;;;4934447;29;20086;-88
2021/07/12 07:31:10;;;;;;;17.80;12.52;;;19.20;93.50;;;;;;4918308;29;20070;-89
2021/07/12 07:33:36;;;;;;;14.52;12.88;;;19.30;93.40;;;;;;4938732;28;20115;-89
2021/07/12 07:36:02;;;;;;;19.67;12.27;;;19.30;93.40;;;;;;4934455;29;20424;-88
2021/07/12 07:38:28;;;;;;;16.25;11.52;;;19.40;93.30;;;;;;4918525;28;20559;-88
2021/07/12 07:40:53;;;;;;;13.48;11.23;;;19.40;93.50;;;;;;4918037;29;20032;-88
2021/07/12 07:43:19;;;;;;;15.38;11.45;;;19.50;93.20;;;;;;4918212;29;20528;-89
2021/07/12 07:45:44;;;;;;;11.98;10.57;;;19.50;92.70;;;;;;4918331;29;20051;-89
2021/07/12 07:48:10;;;;;;;13.15;11.15;;;19.50;92.40;;;;;;4949758;29;20023;-88
2021/07/12 07:50:40;;;;;;;13.95;10.60;;;19.60;92.50;;;;;;4918255;29;20384;-89
2021/07/12 07:53:06;;;;;;;11.82;10.57;;;19.60;92.00;;;;;;4935155;28;20082;-89
2021/07/12 07:55:32;;;;;;;12.43;10.65;;;19.70;91.90;;;;;;4933980;29;20447;-89
2021/07/12 07:57:57;;;;;;;11.70;10.50;;;19.70;92.20;;;;;;4933733;28;20031;-88
2021/07/12 08:00:24;;;;;;;10.65;9.35;;;19.70;92.10;;;;;;4917730;29;20498;-89
2021/07/12 08:02:50;;;;;;;13.23;9.38;;;19.70;92.00;;;;;;4918075;29;20039;-89
2021/07/12 08:05:19;;;;;;;11.38;8.95;;;19.80;91.70;;;;;;4918019;29;20039;-89
2021/07/12 08:07:45;;;;;;;10.93;9.77;;;19.80;91.90;;;;;;4933691;28;20810;-90
2021/07/12 08:10:13;;;;;;;9.93;8.75;;;19.90;91.40;;;;;;4949767;28;20031;-89
2021/07/12 08:12:39;;;;;;;8.80;7.90;;;19.90;91.20;;;;;;4934006;29;20031;-89
2021/07/12 08:15:06;;;;;;;9.68;8.77;;;19.90;90.80;;;;;;4938700;28;20023;-88
2021/07/12 08:17:31;;;;;;;10.45;8.82;;;20.00;90.80;;;;;;4949238;29;20032;-89
2021/07/12 08:19:57;;;;;;;9.82;8.15;;;20.00;91.00;;;;;;4966182;28;20074;-89
2021/07/12 08:22:22;;;;;;;14.05;9.02;;;20.00;91.30;;;;;;4969058;28;20031;-89
2021/07/12 08:24:48;;;;;;;10.68;9.13;;;20.10;90.70;;;;;;4937163;28;20581;-89
2021/07/12 08:27:13;;;;;;;11.27;8.60;;;20.10;91.20;;;;;;4952296;28;20035;-89
2021/07/12 08:29:39;;;;;;;9.23;8.25;;;20.10;90.70;;;;;;4968471;28;20027;-89
2021/07/12 08:32:04;;;;;;;10.07;8.70;;;20.20;90.50;;;;;;4955475;28;20023;-89
2021/07/12 08:34:32;;;;;;;9.93;8.80;;;20.20;90.80;;;;;;4933489;29;20031;-89
2021/07/12 08:36:57;;;;;;;12.18;8.60;;;20.20;90.80;;;;;;4949266;29;20030;-89
2021/07/12 08:39:23;;;;;;;10.20;8.30;;;20.30;90.80;;;;;;4949088;29;20023;-90
2021/07/12 08:41:49;;;;;;;9.13;7.65;;;20.30;90.70;;;;;;4948956;29;20626;-89
2021/07/12 08:44:14;;;;;;;8.35;7.55;;;20.30;90.50;;;;;;4933273;29;20394;-89
2021/07/12 08:46:41;;;;;;;10.90;8.38;;;20.40;90.30;;;;;;4946446;29;20051;-89
2021/07/12 08:49:06;;;;;;;12.50;8.10;;;20.40;90.30;;;;;;4918382;28;20045;-89
2021/07/12 08:51:32;;;;;;;8.32;7.07;;;20.50;90.30;;;;;;4932943;28;20123;-90
2021/07/12 08:53:57;;;;;;;7.57;6.78;;;20.50;89.70;;;;;;4952101;28;20382;-90
2021/07/12 08:56:23;;;;;;;7.40;6.22;;;20.60;89.60;;;;;;4952121;28;20031;-88
2021/07/12 08:58:48;;;;;;;6.57;5.88;;;20.60;90.20;;;;;;4951982;28;20034;-89
2021/07/12 09:01:14;;;;;;;7.13;5.88;;;20.60;89.20;;;;;;4952163;28;20328;-88
2021/07/12 09:03:43;;;;;;;8.18;5.43;;;20.70;88.70;;;;;;4952087;28;20045;-87
2021/07/12 09:06:09;;;;;;;6.05;5.32;;;20.70;88.80;;;;;;4968032;28;20500;-88
2021/07/12 09:08:54;;;;;;;6.25;5.30;;;20.70;88.30;;;;;;4966132;28;20030;-88
2021/07/12 09:11:40;;;;;;;7.05;5.78;;;20.80;88.40;;;;;;4967912;28;20382;-87
2021/07/12 09:14:09;;;;;;;5.75;5.15;;;20.80;88.50;;;;;;4951781;28;20035;-88
2021/07/12 09:16:38;;;;;;;7.13;5.35;;;20.80;86.90;;;;;;4952510;28;20073;-89
2021/07/12 09:19:06;;;;;;;5.65;5.15;;;20.90;85.90;;;;;;4968183;28;20030;-89
2021/07/12 09:21:36;;;;;;;5.07;4.57;;;20.90;86.20;;;;;;4936517;28;20030;-90
2021/07/12 09:24:18;;;;;;;5.15;4.65;;;20.90;86.90;;;;;;4936751;28;20085;-89
2021/07/12 09:26:51;;;;;;;5.68;4.78;;;20.90;86.40;;;;;;4951905;28;20539;-90
2021/07/12 09:29:28;;;;;;;6.35;4.40;;;21.00;85.60;;;;;;4951488;28;20027;-88
2021/07/12 09:31:53;;;;;;;5.07;4.57;;;21.00;84.40;;;;;;4953283;28;20034;-89
2021/07/12 09:34:20;;;;;;;4.85;4.18;;;21.10;84.50;;;;;;4935893;28;20093;-89
2021/07/12 09:36:46;;;;;;;6.18;4.35;;;21.20;85.00;;;;;;4935931;28;20039;-90
2021/07/12 09:39:25;;;;;;;7.43;4.38;;;21.20;84.70;;;;;;4967642;28;20042;-89
2021/07/12 09:41:52;;;;;;;4.38;3.97;;;21.20;83.10;;;;;;4967772;28;20027;-89
2021/07/12 09:44:22;;;;;;;4.60;4.18;;;21.30;82.40;;;;;;4951525;28;20041;-88
2021/07/12 09:46:48;;;;;;;4.78;4.28;;;21.30;83.00;;;;;;4936169;28;20038;-89
2021/07/12 09:49:15;;;;;;;5.80;4.50;;;21.30;83.20;;;;;;4935532;28;20508;-89
2021/07/12 09:51:41;;;;;;;5.00;4.30;;;21.30;83.70;;;;;;4935670;28;20050;-89
2021/07/12 09:54:19;;;;;;;6.03;4.32;;;21.40;82.90;;;;;;4951676;28;20070;-89
2021/07/12 09:56:48;;;;;;;6.63;4.18;;;21.40;83.10;;;;;;4951372;28;20039;-89
2021/07/12 09:59:14;;;;;;;5.18;4.38;;;21.40;84.10;;;;;;4935681;28;20081;-89
2021/07/12 10:01:48;;;;;;;4.35;3.95;;;21.40;82.50;;;;;;4935190;28;20031;-89
2021/07/12 10:04:14;;;;;;;5.22;4.72;;;21.50;81.50;;;;;;4940118;28;20031;-89
2021/07/12 10:06:39;;;;;;;6.57;4.47;;;21.50;82.50;;;;;;4955522;28;20085;-88
2021/07/12 10:09:06;;;;;;;4.60;4.00;;;21.50;83.60;;;;;;4955102;28;20038;-89
2021/07/12 10:11:31;;;;;;;5.07;3.97;;;21.50;82.90;;;;;;4939235;28;20031;-89
2021/07/12 10:13:57;;;;;;;6.15;4.55;;;21.50;81.90;;;;;;4939216;28;20097;-89
2021/07/12 10:16:23;;;;;;;4.72;3.90;;;21.60;82.10;;;;;;4955512;28;20035;-89
2021/07/12 10:18:48;;;;;;;4.97;3.67;;;21.60;82.30;;;;;;4938749;28;20109;-89
2021/07/12 10:21:14;;;;;;;5.53;3.83;;;21.70;82.40;;;;;;4938976;28;20050;-88
2021/07/12 10:23:39;;;;;;;4.25;3.60;;;21.70;81.80;;;;;;4938913;28;20035;-89
2021/07/12 10:26:05;;;;;;;4.30;3.80;;;21.80;83.50;;;;;;4937732;28;20031;-89
2021/07/12 10:28:39;;;;;;;5.20;3.72;;;21.90;82.10;;;;;;4935248;29;20031;-89
2021/07/12 10:31:18;;;;;;;4.57;3.90;;;21.90;82.90;;;;;;4935383;29;20046;-89
2021/07/12 10:33:44;;;;;;;6.00;4.03;;;21.90;83.10;;;;;;4951784;29;20029;-89
2021/07/12 10:36:09;;;;;;;6.13;3.97;;;22.00;80.80;;;;;;4951690;29;20078;-90
2021/07/12 10:38:40;;;;;;;4.78;3.90;;;22.00;80.90;;;;;;4951064;28;20043;-88
2021/07/12 10:41:23;;;;;;;6.95;3.47;;;22.10;81.50;;;;;;4953433;28;20057;-89
2021/07/12 10:43:50;;;;;;;4.10;3.10;;;22.10;78.60;;;;;;4920791;29;20045;-89
2021/07/12 10:46:27;;;;;;;3.88;3.47;;;22.10;80.00;;;;;;4935525;29;20038;-89
2021/07/12 10:48:53;;;;;;;3.88;3.42;;;22.20;79.70;;;;;;4951096;29;20027;-89
2021/07/12 10:51:22;;;;;;;3.95;3.47;;;22.20;79.70;;;;;;4935424;29;20486;-89
2021/07/12 10:53:59;;;;;;;5.00;3.85;;;22.20;80.60;;;;;;4951378;28;20062;-89
2021/07/12 10:56:48;;;;;;;3.97;3.67;;;22.30;80.70;;;;;;4935621;28;20403;-90
2021/07/12 10:59:27;;;;;;;5.53;4.05;;;22.30;78.50;;;;;;4936239;28;20518;-89
2021/07/12 11:01:53;;;;;;;4.10;3.60;;;22.40;78.50;;;;;;4935837;29;20037;-89
2021/07/12 11:04:35;;;;;;;6.55;3.67;;;22.40;78.20;;;;;;4935165;28;20023;-88
2021/07/12 11:07:03;;;;;;;3.28;2.90;;;22.40;76.10;;;;;;4935266;29;20043;-88
2021/07/12 11:09:48;;;;;;;3.90;3.42;;;22.50;78.40;;;;;;4934534;29;20032;-88
2021/07/12 11:12:30;;;;;;;4.35;3.65;;;22.50;77.20;;;;;;4934927;29;20737;-87
2021/07/12 11:15:31;;;;;;;4.93;3.50;;;22.50;78.10;;;;;;4933857;29;20035;-88
2021/07/12 11:18:04;;;;;;;3.13;2.92;;;22.50;79.00;;;;;;4937386;29;20043;-88
2021/07/12 11:20:58;;;;;;;3.45;3.15;;;22.50;79.00;;;;;;4940734;28;20647;-89
2021/07/12 11:23:44;;;;;;;3.35;3.05;;;22.60;77.20;;;;;;4949416;28;20034;-88
2021/07/12 11:26:19;;;;;;;3.70;3.30;;;22.60;77.70;;;;;;4953791;28;20038;-89
2021/07/12 11:28:46;;;;;;;3.45;3.15;;;22.70;79.10;;;;;;4965073;28;20031;-89
2021/07/12 11:31:48;;;;;;;5.60;3.50;;;22.80;79.80;;;;;;4943622;29;20082;-89
2021/07/12 11:34:21;;;;;;;4.57;3.00;;;22.80;77.90;;;;;;4951653;29;20049;-89
2021/07/12 11:36:48;;;;;;;3.30;2.75;;;22.90;75.50;;;;;;4965535;23;20062;-89
2021/07/12 11:39:17;;;;;;;4.97;3.17;;;22.90;75.70;;;;;;4932514;29;20560;-89
2021/07/12 11:41:43;;;;;;;3.83;3.25;;;23.00;76.90;;;;;;4934462;29;20032;-87
2021/07/12 11:44:13;;;;;;;3.63;2.67;;;23.00;77.50;;;;;;4920552;29;20038;-86
2021/07/12 11:46:39;;;;;;;3.20;2.88;;;23.00;77.30;;;;;;4950030;28;20514;-86
2021/07/12 11:49:14;;;;;;;3.38;3.00;;;23.00;73.30;;;;;;4927884;29;20039;-86
2021/07/12 11:51:40;;;;;;;3.33;3.03;;;23.00;75.50;;;;;;4917071;29;20027;-87
2021/07/12 11:54:17;;;;;;;3.38;2.78;;;23.00;77.40;;;;;;4925414;29;20099;-87
2021/07/12 11:57:10;;;;;;;4.00;2.88;;;23.00;77.00;;;;;;4899971;29;20438;-87
2021/07/12 11:59:36;;;;;;;3.38;3.08;;;23.00;76.60;;;;;;4900401;29;20028;-86
2021/07/12 12:02:09;;;;;;;5.03;3.20;;;23.00;76.20;;;;;;4908010;29;20044;-87
2021/07/12 12:04:41;;;;;;;3.35;3.05;;;23.10;73.80;;;;;;4934358;29;20042;-86
2021/07/12 12:07:22;;;;;;;3.45;3.03;;;23.20;74.50;;;;;;4949397;29;20118;-87
2021/07/12 12:09:56;;;;;;;3.38;3.08;;;23.30;76.30;;;;;;4932391;29;20454;-87
2021/07/12 12:12:22;;;;;;;3.00;2.80;;;23.30;74.60;;;;;;4951186;28;20027;-87
2021/07/12 12:14:48;;;;;;;4.70;2.90;;;23.50;76.40;;;;;;4915205;29;20038;-87
2021/07/12 12:17:13;;;;;;;3.72;3.28;;;23.50;75.30;;;;;;4905380;29;20035;-87
2021/07/12 12:19:39;;;;;;;2.90;2.67;;;23.50;72.60;;;;;;4917652;29;20118;-87
2021/07/12 12:22:04;;;;;;;3.00;2.80;;;23.50;72.50;;;;;;4914209;29;20052;-87
2021/07/12 12:24:30;;;;;;;5.95;2.95;;;23.60;72.10;;;;;;4917701;29;20039;-87
2021/07/12 12:26:55;;;;;;;3.80;3.00;;;23.60;69.90;;;;;;4917575;29;20731;-87
2021/07/12 12:29:21;;;;;;;6.97;2.75;;;23.60;70.70;;;;;;4917355;29;20031;-86
2021/07/12 12:31:46;;;;;;;3.47;2.88;;;23.60;66.20;;;;;;4918029;29;20038;-87
2021/07/12 12:34:15;;;;;;;3.03;2.72;;;23.70;67.60;;;;;;4914488;29;20040;-87
2021/07/12 12:36:44;;;;;;;5.75;2.63;;;23.70;68.80;;;;;;4899194;29;20031;-87
2021/07/12 12:39:13;;;;;;;4.10;2.75;;;23.70;70.40;;;;;;4898875;29;20042;-87
2021/07/12 12:41:46;;;;;;;3.63;2.50;;;23.70;70.50;;;;;;4899613;29;20031;-87
2021/07/12 12:44:13;;;;;;;3.90;2.80;;;23.70;69.00;;;;;;4915306;29;20063;-87